Time,TemperatureF,DewpointF,PressureIn,WindDirection,WindDirectionDegrees,WindSpeedMPH,WindSpeedGustMPH,Humidity,HourlyPrecipIn,Conditions,Clouds,dailyrainin,SoftwareType,DateUTC
2013-04-05 00:09:00,41.6,40.0,30.07,ESE,123,0.0,-999.0,95,-99.99,,,0.00,weatherlink.com 1.10,2013-04-05 05:09:00,
2013-04-05 00:24:00,41.4,40.0,30.07,East,87,0.0,-999.0,95,-99.99,,,0.00,weatherlink.com 1.10,2013-04-05 05:24:00,
2013-04-05 00:39:00,41.5,40.0,30.07,East,99,0.0,-999.0,95,-99.99,,,0.00,weatherlink.com 1.10,2013-04-05 05:39:00,
2013-04-05 00:54:00,41.6,40.0,30.07,East,99,0.0,-999.0,95,-99.99,,,0.00,weatherlink.com 1.10,2013-04-05 05:54:00,
2013-04-05 01:09:00,41.7,40.0,30.07,ESE,103,0.0,-999.0,95,-99.99,,,0.00,weatherlink.com 1.10,2013-04-05 06:09:00,
2013-04-05 01:24:00,41.7,40.0,30.07,ESE,103,0.0,-999.0,95,-99.99,,,0.00,weatherlink.com 1.10,2013-04-05 06:24:00,
2013-04-05 01:54:00,41.6,41.0,30.07,East,95,0.0,-999.0,96,-99.99,,,0.00,weatherlink.com 1.10,2013-04-05 06:54:00,
2013-04-05 02:09:00,41.7,41.0,30.07,East,88,0.0,-999.0,96,-99.99,,,0.00,weatherlink.com 1.10,2013-04-05 07:09:00,
2013-04-05 02:24:00,41.7,41.0,30.07,East,88,0.0,-999.0,96,-99.99,,,0.00,weatherlink.com 1.10,2013-04-05 07:24:00,
2013-04-05 02:39:00,41.7,41.0,30.08,East,88,0.0,-999.0,96,-99.99,,,0.00,weatherlink.com 1.10,2013-04-05 07:39:00,
2013-04-05 02:54:00,41.8,41.0,30.08,East,88,0.0,-999.0,96,-99.99,,,0.00,weatherlink.com 1.10,2013-04-05 07:54:00,
2013-04-05 03:10:00,41.9,41.0,30.08,NE,46,3.0,-999.0,96,-99.99,,,0.00,weatherlink.com 1.10,2013-04-05 08:10:00,
2013-04-05 03:25:00,41.9,41.0,30.08,ENE,73,0.0,-999.0,96,-99.99,,,0.00,weatherlink.com 1.10,2013-04-05 08:25:00,
2013-04-05 03:40:00,42.0,41.0,30.08,NE,49,4.0,-999.0,96,-99.99,,,0.00,weatherlink.com 1.10,2013-04-05 08:40:00,
2013-04-05 03:55:00,42.1,41.0,30.08,NE,43,3.0,-999.0,96,-99.99,,,0.00,weatherlink.com 1.10,2013-04-05 08:55:00,
2013-04-05 04:10:00,42.4,41.0,30.09,NNE,26,0.0,-999.0,96,-99.99,,,0.00,weatherlink.com 1.10,2013-04-05 09:10:00,
2013-04-05 04:25:00,42.7,42.0,30.09,NNE,28,0.0,-999.0,96,-99.99,,,0.00,weatherlink.com 1.10,2013-04-05 09:25:00,
2013-04-05 04:40:00,42.8,42.0,30.10,NNE,28,0.0,-999.0,97,-99.99,,,0.00,weatherlink.com 1.10,2013-04-05 09:40:00,
2013-04-05 04:55:00,43.1,42.0,30.10,NNE,28,0.0,-999.0,97,-99.99,,,0.00,weatherlink.com 1.10,2013-04-05 09:55:00,
2013-04-05 05:10:00,43.4,43.0,30.10,North,9,5.0,-999.0,97,-99.99,,,0.00,weatherlink.com 1.10,2013-04-05 10:10:00,
2013-04-05 05:25:00,43.6,43.0,30.10,North,5,3.0,-999.0,97,-99.99,,,0.00,weatherlink.com 1.10,2013-04-05 10:25:00,
2013-04-05 05:40:00,43.7,43.0,30.10,NE,40,0.0,-999.0,97,-99.99,,,0.00,weatherlink.com 1.10,2013-04-05 10:40:00,
2013-04-05 06:10:00,43.8,43.0,30.11,NNE,19,1.0,-999.0,97,-99.99,,,0.00,weatherlink.com 1.10,2013-04-05 11:10:00,
2013-04-05 06:25:00,43.9,43.0,30.11,North,10,0.0,-999.0,97,-99.99,,,0.00,weatherlink.com 1.10,2013-04-05 11:25:00,
2013-04-05 06:40:00,44.0,43.0,30.11,North,11,0.0,-999.0,96,-99.99,,,0.00,weatherlink.com 1.10,2013-04-05 11:40:00,
2013-04-05 06:55:00,44.2,43.0,30.12,NNE,19,6.0,-999.0,97,-99.99,,,0.00,weatherlink.com 1.10,2013-04-05 11:55:00,
2013-04-05 07:10:00,44.5,44.0,30.12,NNE,28,5.0,-999.0,96,-99.99,,,0.00,weatherlink.com 1.10,2013-04-05 12:10:00,
2013-04-05 07:25:00,44.7,44.0,30.12,NNE,26,3.0,-999.0,96,-99.99,,,0.00,weatherlink.com 1.10,2013-04-05 12:25:00,
2013-04-05 07:40:00,45.3,44.0,30.13,NNE,22,3.0,-999.0,96,-99.99,,,0.00,weatherlink.com 1.10,2013-04-05 12:40:00,
2013-04-05 07:55:00,45.8,45.0,30.14,NE,38,9.0,-999.0,96,-99.99,,,0.00,weatherlink.com 1.10,2013-04-05 12:55:00,
2013-04-05 08:10:00,46.5,45.0,30.14,NE,42,1.0,-999.0,95,-99.99,,,0.00,weatherlink.com 1.10,2013-04-05 13:10:00,
2013-04-05 08:25:00,46.7,45.0,30.14,NNW,346,10.0,-999.0,94,-99.99,,,0.00,weatherlink.com 1.10,2013-04-05 13:25:00,
2013-04-05 08:40:00,46.8,45.0,30.15,NE,36,4.0,-999.0,93,-99.99,,,0.00,weatherlink.com 1.10,2013-04-05 13:40:00,
2013-04-05 08:55:00,47.7,46.0,30.14,NNE,24,7.0,-999.0,92,-99.99,,,0.00,weatherlink.com 1.10,2013-04-05 13:55:00,
2013-04-05 09:10:00,47.6,45.0,30.14,NNE,28,7.0,-999.0,92,-99.99,,,0.00,weatherlink.com 1.10,2013-04-05 14:10:00,
2013-04-05 09:25:00,48.3,46.0,30.14,NNE,26,13.0,-999.0,91,-99.99,,,0.00,weatherlink.com 1.10,2013-04-05 14:25:00,
2013-04-05 09:40:00,50.1,47.0,30.15,NNE,22,7.0,-999.0,89,-99.99,,,0.00,weatherlink.com 1.10,2013-04-05 14:40:00,
2013-04-05 09:55:00,50.6,46.0,30.16,NNE,24,8.0,-999.0,85,-99.99,,,0.00,weatherlink.com 1.10,2013-04-05 14:55:00,
2013-04-05 10:10:00,51.1,47.0,30.15,North,5,11.0,-999.0,85,-99.99,,,0.00,weatherlink.com 1.10,2013-04-05 15:10:00,
2013-04-05 10:25:00,52.6,47.0,30.16,NNE,13,10.0,-999.0,81,-99.99,,,0.00,weatherlink.com 1.10,2013-04-05 15:25:00,
2013-04-05 10:40:00,53.2,47.0,30.16,NE,40,16.0,-999.0,78,-99.99,,,0.00,weatherlink.com 1.10,2013-04-05 15:40:00,
2013-04-05 10:55:00,54.0,46.0,30.17,NNE,15,10.0,-999.0,75,-99.99,,,0.00,weatherlink.com 1.10,2013-04-05 15:55:00,
2013-04-05 11:10:00,52.9,46.0,30.17,NE,36,12.0,-999.0,78,-99.99,,,0.00,weatherlink.com 1.10,2013-04-05 16:10:00,
2013-04-05 11:25:00,54.5,46.0,30.18,ENE,57,6.0,-999.0,73,-99.99,,,0.00,weatherlink.com 1.10,2013-04-05 16:25:00,
2013-04-05 11:40:00,54.2,45.0,30.17,NNE,31,9.0,-999.0,71,-99.99,,,0.00,weatherlink.com 1.10,2013-04-05 16:40:00,
2013-04-05 11:55:00,54.4,45.0,30.17,North,9,6.0,-999.0,71,-99.99,,,0.00,weatherlink.com 1.10,2013-04-05 16:55:00,
2013-04-05 12:10:00,54.9,44.0,30.16,NE,36,11.0,-999.0,67,-99.99,,,0.00,weatherlink.com 1.10,2013-04-05 17:10:00,
2013-04-05 12:26:00,55.8,44.0,30.16,NNE,29,9.0,-999.0,65,-99.99,,,0.00,weatherlink.com 1.10,2013-04-05 17:26:00,
2013-04-05 12:41:00,56.6,43.0,30.16,NNE,23,13.0,-999.0,60,-99.99,,,0.00,weatherlink.com 1.10,2013-04-05 17:41:00,
2013-04-05 12:56:00,56.9,44.0,30.15,NNW,347,6.0,-999.0,62,-99.99,,,0.00,weatherlink.com 1.10,2013-04-05 17:56:00,
2013-04-05 13:11:00,57.4,44.0,30.15,NE,39,5.0,-999.0,61,-99.99,,,0.00,weatherlink.com 1.10,2013-04-05 18:11:00,
2013-04-05 13:41:00,57.8,42.0,30.14,NNE,22,6.0,-999.0,57,-99.99,,,0.00,weatherlink.com 1.10,2013-04-05 18:41:00,
2013-04-05 13:56:00,58.4,43.0,30.14,NNE,23,7.0,-999.0,58,-99.99,,,0.00,weatherlink.com 1.10,2013-04-05 18:56:00,
2013-04-05 14:11:00,59.3,44.0,30.13,NE,41,7.0,-999.0,57,-99.99,,,0.00,weatherlink.com 1.10,2013-04-05 19:11:00,
2013-04-05 14:41:00,60.1,41.0,30.12,NNE,28,6.0,-999.0,50,-99.99,,,0.00,weatherlink.com 1.10,2013-04-05 19:41:00,
2013-04-05 15:11:00,60.7,42.0,30.12,NNE,19,2.0,-999.0,51,-99.99,,,0.00,weatherlink.com 1.10,2013-04-05 20:11:00,
2013-04-05 15:26:00,61.1,42.0,30.12,North,5,12.0,-999.0,50,-99.99,,,0.00,weatherlink.com 1.10,2013-04-05 20:26:00,
2013-04-05 15:41:00,61.3,42.0,30.12,NNE,29,5.0,-999.0,49,-99.99,,,0.00,weatherlink.com 1.10,2013-04-05 20:41:00,
2013-04-05 15:56:00,61.8,42.0,30.11,NW,309,8.0,-999.0,48,-99.99,,,0.00,weatherlink.com 1.10,2013-04-05 20:56:00,
2013-04-05 16:11:00,61.9,40.0,30.11,North,5,5.0,-999.0,44,-99.99,,,0.00,weatherlink.com 1.10,2013-04-05 21:11:00,
2013-04-05 16:26:00,62.5,42.0,30.11,North,360,3.0,-999.0,47,-99.99,,,0.00,weatherlink.com 1.10,2013-04-05 21:26:00,
2013-04-05 16:56:00,62.6,40.0,30.12,North,355,6.0,-999.0,43,-99.99,,,0.00,weatherlink.com 1.10,2013-04-05 21:56:00,
2013-04-05 17:26:00,62.7,38.0,30.12,North,351,10.0,-999.0,41,-99.99,,,0.00,weatherlink.com 1.10,2013-04-05 22:26:00,
2013-04-05 17:41:00,62.2,39.0,30.12,North,5,10.0,-999.0,43,-99.99,,,0.00,weatherlink.com 1.10,2013-04-05 22:41:00,
2013-04-05 18:11:00,62.0,39.0,30.12,North,355,8.0,-999.0,43,-99.99,,,0.00,weatherlink.com 1.10,2013-04-05 23:11:00,
2013-04-05 18:26:00,61.7,39.0,30.13,North,355,4.0,-999.0,44,-99.99,,,0.00,weatherlink.com 1.10,2013-04-05 23:26:00,
2013-04-05 18:41:00,61.6,40.0,30.13,North,360,0.0,-999.0,45,-99.99,,,0.00,weatherlink.com 1.10,2013-04-05 23:41:00,
2013-04-05 18:56:00,60.5,40.0,30.13,North,355,0.0,-999.0,48,-99.99,,,0.00,weatherlink.com 1.10,2013-04-05 23:56:00,
2013-04-05 19:11:00,59.6,39.0,30.13,North,360,0.0,-999.0,47,-99.99,,,0.00,weatherlink.com 1.10,2013-04-06 00:11:00,
2013-04-05 19:26:00,58.7,39.0,30.13,NNE,17,3.0,-999.0,48,-99.99,,,0.00,weatherlink.com 1.10,2013-04-06 00:26:00,
2013-04-05 19:41:00,57.8,39.0,30.13,NNE,17,0.0,-999.0,50,-99.99,,,0.00,weatherlink.com 1.10,2013-04-06 00:41:00,
2013-04-05 20:11:00,56.7,39.0,30.14,NNE,17,2.0,-999.0,51,-99.99,,,0.00,weatherlink.com 1.10,2013-04-06 01:11:00,
2013-04-05 20:26:00,55.9,41.0,30.15,NNE,17,0.0,-999.0,58,-99.99,,,0.00,weatherlink.com 1.10,2013-04-06 01:26:00,
2013-04-05 20:41:00,52.6,41.0,30.16,NNE,17,0.0,-999.0,66,-99.99,,,0.00,weatherlink.com 1.10,2013-04-06 01:41:00,
2013-04-05 20:56:00,51.7,40.0,30.16,NNE,17,0.0,-999.0,64,-99.99,,,0.00,weatherlink.com 1.10,2013-04-06 01:56:00,
2013-04-05 21:12:00,50.8,43.0,30.17,NNE,17,0.0,-999.0,74,-99.99,,,0.00,weatherlink.com 1.10,2013-04-06 02:12:00,
2013-04-05 21:27:00,49.9,41.0,30.18,NNE,17,0.0,-999.0,72,-99.99,,,0.00,weatherlink.com 1.10,2013-04-06 02:27:00,
2013-04-05 21:42:00,49.1,40.0,30.18,NNE,17,0.0,-999.0,72,-99.99,,,0.00,weatherlink.com 1.10,2013-04-06 02:42:00,
2013-04-05 21:57:00,49.1,41.0,30.18,NNE,17,0.0,-999.0,73,-99.99,,,0.00,weatherlink.com 1.10,2013-04-06 02:57:00,
2013-04-05 22:12:00,49.6,41.0,30.18,NNE,17,0.0,-999.0,72,-99.99,,,0.00,weatherlink.com 1.10,2013-04-06 03:12:00,
2013-04-05 22:27:00,51.7,39.0,30.18,NNE,17,1.0,-999.0,63,-99.99,,,0.00,weatherlink.com 1.10,2013-04-06 03:27:00,
2013-04-05 22:42:00,52.3,39.0,30.18,NNE,17,0.0,-999.0,61,-99.99,,,0.00,weatherlink.com 1.10,2013-04-06 03:42:00,
2013-04-05 22:57:00,52.1,39.0,30.19,NNE,17,0.0,-999.0,61,-99.99,,,0.00,weatherlink.com 1.10,2013-04-06 03:57:00,
2013-04-05 23:12:00,51.5,39.0,30.19,NNE,17,0.0,-999.0,63,-99.99,,,0.00,weatherlink.com 1.10,2013-04-06 04:12:00,
2013-04-05 23:27:00,50.4,40.0,30.19,NNE,17,0.0,-999.0,67,-99.99,,,0.00,weatherlink.com 1.10,2013-04-06 04:27:00,
2013-04-05 23:42:00,49.0,40.0,30.19,NNE,17,0.0,-999.0,70,-99.99,,,0.00,weatherlink.com 1.10,2013-04-06 04:42:00,
2013-04-05 23:57:00,48.7,39.0,30.18,NNE,17,0.0,-999.0,70,-99.99,,,0.00,weatherlink.com 1.10,2013-04-06 04:57:00,